CheckWX is a tool to help pilots better visualize weather data.  It is not intended as a substitute for an official pre-flight weather briefing.

12:44:07 UTC

65S METAR
Boundary County Airport
Bonners Ferry, Idaho, USA
Current

34 mins ago

K65S 191210Z AUTO 00000KT 1 3/4SM BR OVC003 03/03 A2961 RMK AO2
Observed
Nov-19 @ 12:10 UTC
Visibility
1 3/4 SM
Flight Rules
LIFR
Conditions
Mist
Cloud Levels
  • Overcast at 300' AGL
Temperature
C / 37°F
Dewpoint
C / 37°F
Humidity
100%
Altimeter
29.61" Hg
Pressure
1002.72 hPa
Previous

54 mins ago

K65S 191150Z AUTO 04003KT 1/4SM FG OVC003 03/03 A2960 RMK AO2 P0001
Observed
Nov-19 @ 11:50 UTC
Wind
  • 040° at 3 KTS
Visibility
1/4 SM
Flight Rules
LIFR
Conditions
Fog
Cloud Levels
  • Overcast at 300' AGL
Temperature
C / 37°F
Dewpoint
C / 37°F
Humidity
100%
Altimeter
29.6" Hg
Pressure
1002.42 hPa
Current Rain
0.01"
Previous

1 hour ago

K65S 191130Z AUTO 17003KT 1/4SM FG OVC003 03/03 A2962 RMK AO2 P0001
Observed
Nov-19 @ 11:30 UTC
Wind
  • 170° at 3 KTS
Visibility
1/4 SM
Flight Rules
LIFR
Conditions
Fog
Cloud Levels
  • Overcast at 300' AGL
Temperature
C / 37°F
Dewpoint
C / 37°F
Humidity
100%
Altimeter
29.62" Hg
Pressure
1003.02 hPa
Current Rain
0.01"